createdAt,value
2018-10-01T00:02:03.800Z,89.70
2018-10-01T00:04:33.568Z,89.80
2018-10-01T00:07:04.040Z,89.90
2018-10-01T00:09:34.570Z,90.00
2018-10-01T00:12:05.327Z,90.20
2018-10-01T00:14:35.709Z,90.30
2018-10-01T00:17:06.567Z,90.00
2018-10-01T00:19:42.503Z,90.40
2018-10-01T00:22:17.976Z,90.80
2018-10-01T00:24:48.078Z,90.70
2018-10-01T00:27:18.294Z,91.10
2018-10-01T00:29:49.321Z,90.70
2018-10-01T00:32:19.773Z,90.80
2018-10-01T00:34:49.856Z,91.20
2018-10-01T00:37:23.949Z,91.50
2018-10-01T00:39:54.267Z,91.70
2018-10-01T00:42:25.629Z,92.00
2018-10-01T00:44:56.355Z,91.90
2018-10-01T00:47:26.878Z,91.90
2018-10-01T00:49:56.911Z,91.70
2018-10-01T00:52:27.013Z,91.90
2018-10-01T00:54:57.603Z,91.70
2018-10-01T00:57:29.309Z,91.70
2018-10-01T00:59:59.787Z,91.90
2018-10-01T01:02:30.225Z,92.10
2018-10-01T01:05:00.185Z,91.90
2018-10-01T01:07:30.750Z,91.90
2018-10-01T01:10:01.375Z,92.20
2018-10-01T01:12:33.176Z,92.30
2018-10-01T01:15:03.872Z,91.90
2018-10-01T01:17:35.786Z,92.30
2018-10-01T01:20:06.214Z,92.40
2018-10-01T01:22:36.403Z,92.10
2018-10-01T01:25:06.314Z,92.10
2018-10-01T01:27:37.001Z,92.10
2018-10-01T01:30:07.721Z,91.90
2018-10-01T01:32:38.319Z,91.70
2018-10-01T01:35:21.621Z,91.70
2018-10-01T01:37:52.539Z,91.70
2018-10-01T01:40:23.011Z,91.20
2018-10-01T01:42:53.091Z,91.40
2018-10-01T01:45:23.693Z,91.10
2018-10-01T01:47:54.626Z,91.10
2018-10-01T01:50:25.459Z,91.20
2018-10-01T01:52:55.759Z,91.70
2018-10-01T01:55:25.767Z,91.90
2018-10-01T01:57:55.851Z,92.20
2018-10-01T02:00:26.312Z,92.20
2018-10-01T02:03:00.733Z,92.40
2018-10-01T02:05:31.416Z,92.60
2018-10-01T02:08:02.408Z,92.80
2018-10-01T02:10:32.587Z,93.20
2018-10-01T02:13:02.631Z,93.30
2018-10-01T02:15:32.945Z,93.70
2018-10-01T02:18:03.761Z,93.90
2018-10-01T02:20:33.965Z,94.00
2018-10-01T02:23:04.167Z,94.20
2018-10-01T02:25:33.947Z,94.50
2018-10-01T02:28:03.905Z,94.80
2018-10-01T02:30:34.441Z,94.50
2018-10-01T02:33:05.925Z,94.70
2018-10-01T02:35:37.196Z,94.80
2018-10-01T02:38:08.696Z,94.60
2018-10-01T02:40:39.146Z,94.80
2018-10-01T02:43:09.476Z,94.90
2018-10-01T02:45:41.630Z,95.20
2018-10-01T02:48:12.200Z,94.90
2018-10-01T02:50:42.897Z,94.60
2018-10-01T02:53:20.097Z,94.60
2018-10-01T02:55:50.176Z,94.70
2018-10-01T02:58:25.969Z,94.50
2018-10-01T03:00:56.946Z,94.40
2018-10-01T03:03:27.542Z,94.40
2018-10-01T03:05:58.116Z,94.70
2018-10-01T03:08:33.634Z,94.50
2018-10-01T03:11:03.915Z,94.60
2018-10-01T03:13:36.455Z,94.40
2018-10-01T03:16:06.780Z,94.30
2018-10-01T03:18:36.810Z,94.50
2018-10-01T03:21:07.192Z,94.40
2018-10-01T03:23:39.625Z,94.40
2018-10-01T03:26:09.880Z,94.40
2018-10-01T03:28:40.371Z,94.50
2018-10-01T03:31:10.262Z,94.80
2018-10-01T03:33:43.112Z,95.00
2018-10-01T03:36:13.375Z,95.00
2018-10-01T03:38:44.013Z,94.70
2018-10-01T03:41:14.671Z,94.80
2018-10-01T03:43:46.593Z,94.60
2018-10-01T03:46:16.936Z,94.70
2018-10-01T03:48:47.588Z,94.40
2018-10-01T03:51:18.029Z,94.50
2018-10-01T03:53:48.760Z,94.30
2018-10-01T03:56:18.770Z,94.30
2018-10-01T03:58:49.634Z,94.00
2018-10-01T04:01:19.432Z,94.10
2018-10-01T04:03:51.053Z,94.20
2018-10-01T04:06:21.588Z,94.00
2018-10-01T04:08:51.929Z,93.50
2018-10-01T04:11:21.829Z,93.60
2018-10-01T04:13:52.250Z,93.60
2018-10-01T04:16:22.573Z,93.60
2018-10-01T04:18:52.911Z,93.60
2018-10-01T04:21:23.613Z,93.40
2018-10-01T04:23:54.462Z,93.40
2018-10-01T04:26:24.808Z,93.70
2018-10-01T04:28:55.276Z,93.40
2018-10-01T04:31:26.073Z,93.50
2018-10-01T04:33:56.726Z,93.70
2018-10-01T04:36:26.762Z,93.50
2018-10-01T04:38:57.040Z,93.50
2018-10-01T04:41:26.871Z,94.00
2018-10-01T04:43:58.890Z,93.60
2018-10-01T04:46:29.013Z,93.10
2018-10-01T04:49:00.102Z,92.10
2018-10-01T04:51:30.853Z,92.20
2018-10-01T04:54:01.751Z,92.40
2018-10-01T04:56:34.018Z,92.30
2018-10-01T04:59:05.147Z,92.20
2018-10-01T05:01:35.477Z,91.50
2018-10-01T05:04:06.294Z,91.20
2018-10-01T05:06:38.516Z,91.00
2018-10-01T05:09:12.616Z,91.00
2018-10-01T05:11:43.376Z,91.20
2018-10-01T05:14:16.453Z,90.90
2018-10-01T05:16:47.014Z,91.30
2018-10-01T05:19:17.828Z,91.70
2018-10-01T05:21:50.363Z,91.10
2018-10-01T05:24:20.089Z,91.10
2018-10-01T05:26:51.356Z,91.00
2018-10-01T05:29:22.251Z,91.30
2018-10-01T05:31:52.611Z,91.30
2018-10-01T05:34:24.182Z,92.10
2018-10-01T05:36:54.255Z,91.60
2018-10-01T05:39:24.013Z,90.70
2018-10-01T05:41:54.424Z,91.00
2018-10-01T05:44:24.929Z,91.10
2018-10-01T05:46:55.245Z,91.10
2018-10-01T05:49:25.583Z,91.50
2018-10-01T05:51:55.789Z,91.50
2018-10-01T05:54:27.157Z,91.30
2018-10-01T05:56:59.063Z,91.20
2018-10-01T05:59:31.714Z,91.80
2018-10-01T06:02:02.700Z,91.60
2018-10-01T06:04:34.706Z,91.50
2018-10-01T06:07:06.242Z,92.10
2018-10-01T06:09:37.725Z,91.90
2018-10-01T06:12:08.461Z,91.80
2018-10-01T06:14:39.398Z,91.70
2018-10-01T06:17:11.847Z,91.90
2018-10-01T06:19:44.640Z,91.80
2018-10-01T06:22:15.669Z,92.00
2018-10-01T06:24:46.808Z,92.00
2018-10-01T06:27:17.073Z,91.70
2018-10-01T06:29:48.121Z,91.80
2018-10-01T06:32:18.058Z,91.70
2018-10-01T06:34:48.144Z,92.00
2018-10-01T06:37:18.112Z,92.30
2018-10-01T06:39:47.878Z,92.20
2018-10-01T06:42:18.534Z,92.10
2018-10-01T06:44:48.517Z,92.30
2018-10-01T06:47:19.112Z,91.90
2018-10-01T06:49:49.240Z,92.10
2018-10-01T06:52:19.968Z,92.30
2018-10-01T06:54:53.551Z,92.60
2018-10-01T06:57:23.643Z,92.80
2018-10-01T06:59:53.406Z,92.50
2018-10-01T07:02:23.646Z,92.50
2018-10-01T07:04:53.795Z,91.90
2018-10-01T07:07:25.206Z,92.00
2018-10-01T07:09:55.795Z,91.60
2018-10-01T07:12:25.855Z,91.50
2018-10-01T07:14:56.237Z,91.30
2018-10-01T07:17:26.229Z,91.10
2018-10-01T07:19:57.791Z,91.20
2018-10-01T07:22:28.088Z,90.60
2018-10-01T07:24:57.679Z,90.20
2018-10-01T07:27:27.465Z,89.90
2018-10-01T07:29:58.101Z,89.80
2018-10-01T07:32:28.377Z,89.30
2018-10-01T07:34:59.140Z,89.30
2018-10-01T07:37:28.961Z,89.20
2018-10-01T07:40:00.074Z,89.10
2018-10-01T07:42:30.190Z,89.10
2018-10-01T07:45:04.209Z,88.60
2018-10-01T07:47:35.787Z,88.30
2018-10-01T07:50:06.405Z,88.00
2018-10-01T07:52:36.995Z,87.90
2018-10-01T07:55:07.593Z,87.80
2018-10-01T07:57:38.087Z,87.40
2018-10-01T08:00:10.492Z,87.60
2018-10-01T08:02:40.173Z,87.50
2018-10-01T08:05:10.517Z,86.60
2018-10-01T08:07:40.433Z,85.50
2018-10-01T08:10:10.084Z,86.10
2018-10-01T08:12:40.250Z,86.30
2018-10-01T08:15:10.598Z,86.30
2018-10-01T08:17:40.977Z,86.30
2018-10-01T08:20:11.234Z,86.20
2018-10-01T08:22:42.408Z,86.10
2018-10-01T08:25:12.104Z,86.30
2018-10-01T08:27:42.014Z,86.10
2018-10-01T08:30:21.685Z,85.50
2018-10-01T08:32:51.337Z,85.00
2018-10-01T08:35:22.511Z,84.90
2018-10-01T08:37:53.081Z,84.20
2018-10-01T08:40:23.380Z,83.30
2018-10-01T08:42:54.656Z,82.90
2018-10-01T08:45:25.566Z,83.00
2018-10-01T08:47:56.074Z,82.90
2018-10-01T08:50:34.637Z,82.60
2018-10-01T08:53:10.443Z,81.90
2018-10-01T08:55:40.480Z,82.00
2018-10-01T08:58:10.886Z,82.20
2018-10-01T09:00:41.334Z,82.00
2018-10-01T09:03:11.149Z,82.90
2018-10-01T09:05:40.972Z,82.70
2018-10-01T09:08:11.506Z,83.10
2018-10-01T09:10:41.735Z,83.50
2018-10-01T09:13:11.955Z,83.70
2018-10-01T09:15:42.141Z,83.00
2018-10-01T09:18:12.559Z,82.20
2018-10-01T09:20:45.308Z,82.10
2018-10-01T09:23:15.300Z,82.00
2018-10-01T09:25:45.723Z,81.00
2018-10-01T09:28:16.295Z,80.40
2018-10-01T09:30:46.337Z,80.40
2018-10-01T09:33:16.590Z,79.30
2018-10-01T09:35:46.795Z,79.20
2018-10-01T09:38:17.253Z,79.20
2018-10-01T09:40:47.140Z,78.80
2018-10-01T09:43:17.193Z,78.40
2018-10-01T09:45:47.013Z,77.50
2018-10-01T09:48:17.252Z,78.10
2018-10-01T09:50:47.645Z,77.10
2018-10-01T09:53:17.839Z,76.70
2018-10-01T09:55:51.684Z,76.80
2018-10-01T09:58:22.045Z,77.00
2018-10-01T10:00:57.855Z,81.50
2018-10-01T10:03:28.026Z,87.60
2018-10-01T10:06:07.754Z,93.20
2018-10-01T10:08:38.516Z,94.80
2018-10-01T10:11:14.151Z,96.10
2018-10-01T10:13:43.705Z,96.70
2018-10-01T10:16:14.095Z,96.80
2018-10-01T10:18:43.365Z,96.40
2018-10-01T10:21:16.306Z,96.30
2018-10-01T10:23:46.210Z,93.10
2018-10-01T10:26:16.024Z,87.40
2018-10-01T10:28:48.119Z,82.80
2018-10-01T10:31:18.120Z,79.40
2018-10-01T10:33:48.435Z,79.20
2018-10-01T10:36:20.328Z,78.90
2018-10-01T10:38:50.651Z,76.00
2018-10-01T10:41:21.076Z,74.00
2018-10-01T10:43:51.398Z,75.30
2018-10-01T10:46:21.459Z,78.70
2018-10-01T10:48:52.088Z,80.50
2018-10-01T10:51:21.959Z,77.60
2018-10-01T10:53:53.245Z,76.00
2018-10-01T10:56:23.320Z,73.50
2018-10-01T10:58:53.107Z,72.80
2018-10-01T11:44:24.200Z,93.40
2018-10-01T11:46:54.114Z,90.20
2018-10-01T11:49:24.207Z,89.80
2018-10-01T11:51:58.411Z,89.50
2018-10-01T11:54:29.073Z,89.10
2018-10-01T11:56:59.107Z,88.50
2018-10-01T11:59:29.082Z,86.60
2018-10-01T12:01:59.886Z,84.90
2018-10-01T12:04:30.127Z,84.80
2018-10-01T12:06:59.984Z,84.20
2018-10-01T12:09:30.132Z,83.80
2018-10-01T12:12:00.013Z,83.20
2018-10-01T12:14:29.756Z,82.20
2018-10-01T12:17:00.043Z,81.10
2018-10-01T12:19:30.249Z,79.90
2018-10-01T12:22:00.508Z,80.80
2018-10-01T12:24:30.238Z,80.40
2018-10-01T12:27:00.772Z,78.40
2018-10-01T12:29:30.794Z,73.50
2018-10-01T12:32:01.000Z,69.20
2018-10-01T12:34:31.342Z,70.30
2018-10-01T12:37:01.601Z,72.30
2018-10-01T12:39:31.543Z,74.00
2018-10-01T12:42:01.428Z,73.50
2018-10-01T12:44:31.864Z,74.90
2018-10-01T12:47:07.501Z,76.20
2018-10-01T12:49:37.536Z,77.40
2018-10-01T12:52:07.819Z,78.90
2018-10-01T12:54:37.602Z,80.60
2018-10-01T12:57:08.543Z,86.00
2018-10-01T12:59:38.476Z,88.30
2018-10-01T13:02:08.464Z,84.80
2018-10-01T13:04:38.973Z,84.90
2018-10-01T13:07:09.216Z,83.50
2018-10-01T13:09:39.521Z,78.50
2018-10-01T13:12:09.796Z,75.90
2018-10-01T13:14:39.591Z,76.00
2018-10-01T13:17:10.611Z,74.00
2018-10-01T13:19:41.203Z,71.50
2018-10-01T13:22:12.024Z,68.60
2018-10-01T13:24:42.364Z,65.40
2018-10-01T13:27:13.640Z,65.90
2018-10-01T13:29:43.985Z,65.60
2018-10-01T13:32:14.057Z,65.30
2018-10-01T13:34:43.968Z,66.30
2018-10-01T13:37:14.246Z,64.90
2018-10-01T13:39:44.766Z,65.30
2018-10-01T13:42:14.930Z,65.40
2018-10-01T13:44:49.148Z,64.60
2018-10-01T13:47:19.339Z,64.60
2018-10-01T13:49:50.408Z,66.00
2018-10-01T13:52:20.311Z,68.10
2018-10-01T13:54:50.558Z,69.30
2018-10-01T13:57:20.555Z,66.80
2018-10-01T13:59:54.345Z,64.20
2018-10-01T14:02:25.309Z,64.80
2018-10-01T14:05:00.192Z,68.80
2018-10-01T14:07:31.520Z,72.10
2018-10-01T14:10:02.477Z,75.60
2018-10-01T14:12:32.352Z,77.30
2018-10-01T14:15:02.282Z,78.30
2018-10-01T14:17:32.165Z,78.60
2018-10-01T14:20:02.222Z,77.50
2018-10-01T14:22:32.728Z,76.00
2018-10-01T14:25:04.291Z,75.50
2018-10-01T14:27:33.964Z,72.20
2018-10-01T14:30:05.359Z,68.10
2018-10-01T14:32:44.074Z,65.60
2018-10-01T14:35:13.931Z,64.40
2018-10-01T14:37:44.126Z,66.00
2018-10-01T14:40:14.406Z,68.20
2018-10-01T14:42:45.601Z,71.60
2018-10-01T14:45:15.701Z,75.90
2018-10-01T14:47:46.437Z,82.10
2018-10-01T14:50:20.470Z,85.20
2018-10-01T14:53:01.966Z,85.30
2018-10-01T14:55:32.151Z,84.50
2018-10-01T14:58:02.482Z,79.90
2018-10-01T15:00:33.357Z,77.00
2018-10-01T15:03:03.333Z,73.20
2018-10-01T15:05:34.585Z,75.40
2018-10-01T15:08:04.908Z,75.30
2018-10-01T15:10:35.135Z,76.50
2018-10-01T15:13:05.324Z,76.50
2018-10-01T15:15:40.073Z,76.30
2018-10-01T15:18:10.597Z,77.20
2018-10-01T15:20:40.609Z,76.10
2018-10-01T15:23:11.277Z,75.40
2018-10-01T15:25:41.580Z,75.60
2018-10-01T15:28:12.599Z,74.80
2018-10-01T15:30:43.342Z,74.50
2018-10-01T15:33:13.325Z,74.50
2018-10-01T15:35:43.411Z,75.40
2018-10-01T15:38:13.221Z,76.10
2018-10-01T15:40:43.993Z,76.40
2018-10-01T15:43:14.737Z,76.00
2018-10-01T15:45:45.451Z,77.00
2018-10-01T15:48:15.814Z,77.60
2018-10-01T15:50:46.170Z,78.20
2018-10-01T15:53:16.925Z,79.00
2018-10-01T15:55:46.886Z,80.60
2018-10-01T15:58:18.936Z,83.50
2018-10-01T16:00:48.960Z,83.30
2018-10-01T16:03:19.144Z,83.30
2018-10-01T16:05:49.050Z,83.70
2018-10-01T16:08:19.379Z,82.90
2018-10-01T16:10:50.446Z,82.20
2018-10-01T16:13:20.859Z,81.70
2018-10-01T16:15:51.331Z,81.70
2018-10-01T16:18:23.493Z,81.80
2018-10-01T16:20:53.816Z,82.00
2018-10-01T16:23:24.707Z,81.50
2018-10-01T16:25:55.231Z,81.60
2018-10-01T16:28:25.573Z,81.70
2018-10-01T16:30:56.126Z,81.50
2018-10-01T16:33:26.185Z,80.40
2018-10-01T16:35:57.119Z,79.20
2018-10-01T16:38:28.264Z,79.20
2018-10-01T16:40:58.011Z,80.10
2018-10-01T16:43:28.025Z,80.90
2018-10-01T16:45:58.291Z,81.30
2018-10-01T16:48:29.301Z,81.80
2018-10-01T16:50:59.493Z,81.70
2018-10-01T16:53:29.601Z,81.60
2018-10-01T16:55:59.857Z,81.70
2018-10-01T16:58:30.367Z,82.10
2018-10-01T17:01:01.440Z,82.60
2018-10-01T17:03:32.600Z,83.00
2018-10-01T17:06:03.642Z,83.30
2018-10-01T17:08:42.757Z,83.70
2018-10-01T17:14:07.884Z,84.10
2018-10-01T17:16:52.341Z,84.60
2018-10-01T17:19:22.038Z,85.10
2018-10-01T17:22:09.604Z,85.70
2018-10-01T17:24:39.467Z,87.80
2018-10-01T17:27:09.051Z,88.10
2018-10-01T17:29:38.813Z,87.60
2018-10-01T17:32:08.801Z,87.60
2018-10-01T17:34:38.794Z,87.60
2018-10-01T17:37:08.481Z,88.10
2018-10-01T17:39:38.547Z,88.80
2018-10-01T17:42:08.363Z,89.30
2018-10-01T17:44:38.251Z,89.50
2018-10-01T17:47:08.152Z,90.20
2018-10-01T17:49:38.498Z,90.00
2018-10-01T17:52:08.769Z,90.80
2018-10-01T17:54:40.906Z,90.90
2018-10-01T17:57:10.438Z,91.00
2018-10-01T18:02:21.876Z,91.00
2018-10-01T18:04:52.786Z,90.70
2018-10-01T18:07:22.778Z,90.00
2018-10-01T18:09:52.815Z,89.90
2018-10-01T18:12:22.818Z,90.00
2018-10-01T18:14:52.400Z,90.30
2018-10-01T18:17:22.166Z,90.30
2018-10-01T18:19:52.111Z,90.10
2018-10-01T18:22:22.185Z,90.20
2018-10-01T18:24:51.657Z,90.30
2018-10-01T18:27:21.823Z,90.10
2018-10-01T18:29:52.041Z,90.20
2018-10-01T18:32:22.703Z,90.50
2018-10-01T18:34:52.778Z,90.70
2018-10-01T18:37:22.765Z,91.30
2018-10-01T18:39:52.732Z,91.30
2018-10-01T18:42:22.772Z,91.60
2018-10-01T18:44:57.074Z,92.10
2018-10-01T18:47:27.313Z,92.40
2018-10-01T18:49:58.461Z,92.90
2018-10-01T18:52:32.366Z,93.40
2018-10-01T18:55:02.386Z,93.80
2018-10-01T18:57:34.713Z,93.30
2018-10-01T19:00:05.607Z,93.30
2018-10-01T19:02:36.767Z,93.70
2018-10-01T19:05:07.243Z,93.60
2018-10-01T19:07:37.936Z,93.20
2018-10-01T19:10:10.032Z,93.20
2018-10-01T19:12:41.405Z,93.50
2018-10-01T19:15:13.071Z,93.60
2018-10-01T19:17:43.152Z,92.90
2018-10-01T19:20:13.152Z,92.40
2018-10-01T19:22:43.974Z,91.90
2018-10-01T19:25:13.707Z,91.40
2018-10-01T19:27:44.482Z,90.70
2018-10-01T19:30:20.318Z,90.10
2018-10-01T19:32:50.060Z,90.10
2018-10-01T19:35:20.390Z,90.00
2018-10-01T19:37:51.270Z,89.60
2018-10-01T19:40:20.807Z,88.60
2018-10-01T19:42:50.387Z,89.80
2018-10-01T19:45:19.880Z,89.80
2018-10-01T19:47:49.775Z,90.30
2018-10-01T19:50:20.228Z,90.70
2018-10-01T19:52:51.319Z,91.60
2018-10-01T19:55:20.855Z,92.30
2018-10-01T19:57:50.551Z,92.50
2018-10-01T20:00:20.095Z,92.90
2018-10-01T20:02:49.907Z,93.20
2018-10-01T20:05:20.428Z,93.70
2018-10-01T20:07:50.807Z,94.10
2018-10-01T20:10:20.564Z,95.20
2018-10-01T20:12:50.583Z,95.10
2018-10-01T20:15:20.979Z,95.60
2018-10-01T20:17:50.870Z,95.70
2018-10-01T20:20:21.399Z,95.60
2018-10-01T20:22:51.278Z,96.00
2018-10-01T20:25:36.507Z,96.00
2018-10-01T20:28:07.106Z,96.00
2018-10-01T20:30:37.496Z,95.90
2018-10-01T20:33:07.618Z,95.50
2018-10-01T20:35:39.038Z,96.00
2018-10-01T20:38:10.565Z,96.00
2018-10-01T20:40:40.342Z,96.00
2018-10-01T20:43:10.641Z,96.00
2018-10-01T20:45:41.236Z,96.20
2018-10-01T20:48:12.088Z,96.30
2018-10-01T20:50:42.716Z,96.50
2018-10-01T20:53:13.577Z,96.50
2018-10-01T20:55:44.451Z,96.50
2018-10-01T20:58:15.100Z,95.60
2018-10-01T21:00:45.665Z,95.30
2018-10-01T21:03:16.652Z,95.10
2018-10-01T21:05:47.869Z,95.30
2018-10-01T21:08:20.888Z,95.00
2018-10-01T21:10:51.941Z,94.50
2018-10-01T21:13:23.389Z,95.00
2018-10-01T21:15:54.102Z,95.30
2018-10-01T21:18:25.135Z,95.40
2018-10-01T21:20:56.263Z,95.40
2018-10-01T21:23:27.077Z,95.40
2018-10-01T21:25:58.043Z,95.70
2018-10-01T21:28:28.908Z,95.70
2018-10-01T21:30:59.711Z,96.00
2018-10-01T21:33:31.383Z,96.20
2018-10-01T21:36:02.955Z,96.50
2018-10-01T21:38:33.483Z,96.90
2018-10-01T21:41:04.725Z,96.70
2018-10-01T21:43:35.933Z,96.40
2018-10-01T21:46:07.364Z,95.90
2018-10-01T21:48:39.054Z,95.90
2018-10-01T21:51:09.493Z,95.80
2018-10-01T21:53:40.439Z,95.80
2018-10-01T21:56:11.349Z,95.90
2018-10-01T21:58:42.305Z,95.90
2018-10-01T22:01:18.387Z,95.80
2018-10-01T22:03:49.266Z,95.80
2018-10-01T22:06:20.867Z,95.70
2018-10-01T22:08:51.827Z,95.80
2018-10-01T22:11:23.840Z,96.00
2018-10-01T22:13:54.629Z,96.20
2018-10-01T22:16:25.915Z,95.90
2018-10-01T22:18:56.633Z,95.60
2018-10-01T22:21:30.693Z,95.60
2018-10-01T22:24:01.510Z,95.70
2018-10-01T22:26:32.482Z,95.60
2018-10-01T22:29:04.845Z,95.50
2018-10-01T22:34:45.628Z,95.30
2018-10-01T22:37:16.739Z,95.00
2018-10-01T22:39:48.630Z,94.90
2018-10-01T22:42:19.682Z,94.40
2018-10-01T22:44:50.140Z,93.90
2018-10-01T22:47:21.211Z,93.50
2018-10-01T22:49:52.103Z,93.50
2018-10-01T22:52:23.210Z,93.40
2018-10-01T22:54:55.039Z,93.30
2018-10-01T22:57:27.947Z,93.50
2018-10-01T22:59:58.756Z,93.40
2018-10-01T23:02:30.646Z,93.40
2018-10-01T23:05:02.325Z,93.40
2018-10-01T23:07:41.247Z,93.40
2018-10-01T23:10:12.364Z,93.00
2018-10-01T23:12:49.257Z,92.80
2018-10-01T23:15:20.347Z,92.70
2018-10-01T23:17:52.669Z,92.70
2018-10-01T23:20:23.725Z,92.70
2018-10-01T23:22:55.242Z,92.80
2018-10-01T23:25:26.376Z,92.80
2018-10-01T23:27:58.589Z,92.70
2018-10-01T23:30:30.248Z,92.80
2018-10-01T23:33:01.138Z,92.70
2018-10-01T23:35:32.828Z,93.30
2018-10-01T23:38:03.917Z,93.30
2018-10-01T23:40:42.648Z,93.60
2018-10-01T23:43:13.674Z,93.70
2018-10-01T23:45:45.787Z,93.50
2018-10-01T23:48:16.770Z,93.80
2018-10-01T23:50:48.127Z,94.00
2018-10-01T23:53:19.597Z,94.00
2018-10-01T23:55:51.216Z,93.80
2018-10-01T23:58:22.618Z,93.80
